Time;durP1;ratioP1;P1;durP2;ratioP2;P2;SDS_P1;SDS_P2;PMS_P1;PMS_P2;Temp;Humidity;BMP_temperature;BMP_pressure;BME280_temperature;BME280_humidity;BME280_pressure;Samples;Min_cycle;Max_cycle;Signal;HPM_P1;HPM_P2
2021/07/19 00:01:52;;;;;;;12.00;4.07;;;;;;;16.16;64.14;102127.69;3577433;40;20609;-81
2021/07/19 00:04:17;;;;;;;10.27;4.20;;;;;;;16.19;63.70;102116.53;3575937;40;20614;-81
2021/07/19 00:06:42;;;;;;;6.80;3.20;;;;;;;16.23;63.25;102121.81;3581806;40;20280;-79
2021/07/19 00:09:08;;;;;;;7.70;3.50;;;;;;;16.20;63.58;102121.75;3586729;40;20222;-81
2021/07/19 00:11:33;;;;;;;10.27;4.13;;;;;;;16.20;63.69;102124.31;3579309;40;20230;-81
2021/07/19 00:13:58;;;;;;;9.03;3.60;;;;;;;16.10;63.71;102125.00;3587036;40;20249;-82
2021/07/19 00:16:24;;;;;;;11.37;4.07;;;;;;;16.05;63.95;102118.91;3577750;40;20321;-81
2021/07/19 00:18:49;;;;;;;11.17;4.03;;;;;;;15.99;63.45;102117.91;3585956;40;20233;-80
2021/07/19 00:21:15;;;;;;;9.00;4.00;;;;;;;15.98;63.70;102123.94;3585471;40;20501;-81
2021/07/19 00:23:40;;;;;;;11.67;4.13;;;;;;;15.93;63.72;102115.25;3587490;40;20291;-81
2021/07/19 00:26:05;;;;;;;9.13;4.23;;;;;;;15.95;63.86;102117.00;3587027;40;20245;-80
2021/07/19 00:28:31;;;;;;;9.77;3.97;;;;;;;15.96;63.78;102121.31;3586120;40;20222;-80
2021/07/19 00:30:57;;;;;;;7.20;3.00;;;;;;;16.00;64.23;102117.94;3585658;40;20230;-81
2021/07/19 00:33:22;;;;;;;11.73;4.40;;;;;;;16.01;64.75;102116.22;3586036;40;20901;-81
2021/07/19 00:35:47;;;;;;;9.60;3.70;;;;;;;16.13;64.25;102119.91;3578426;40;20239;-80
2021/07/19 00:38:13;;;;;;;8.80;3.90;;;;;;;16.25;63.42;102120.09;3576451;40;20234;-79
2021/07/19 00:40:38;;;;;;;11.30;4.40;;;;;;;16.33;63.85;102122.81;3577148;40;20553;-81
2021/07/19 00:43:05;;;;;;;8.23;3.60;;;;;;;16.36;63.74;102118.59;3576162;40;20241;-81
2021/07/19 00:45:31;;;;;;;12.37;4.00;;;;;;;16.39;64.06;102112.59;3576381;40;20219;-80
2021/07/19 00:47:59;;;;;;;10.13;4.53;;;;;;;16.45;63.00;102111.00;3580994;40;20233;-80
2021/07/19 00:50:27;;;;;;;9.63;3.93;;;;;;;16.44;63.52;102108.41;3578347;40;20230;-81
2021/07/19 00:52:59;;;;;;;7.43;3.40;;;;;;;16.43;63.17;102110.09;3567559;40;20245;-81
2021/07/19 00:55:30;;;;;;;9.97;4.13;;;;;;;16.49;63.38;102114.50;3572729;40;20730;-80
2021/07/19 00:57:56;;;;;;;14.40;4.87;;;;;;;16.59;63.14;102119.84;3566992;40;20223;-81
2021/07/19 01:00:21;;;;;;;10.07;3.70;;;;;;;16.75;63.35;102115.75;3565790;40;20227;-80
2021/07/19 01:02:49;;;;;;;8.90;3.43;;;;;;;16.70;63.15;102117.41;3576170;40;20258;-80
2021/07/19 01:05:16;;;;;;;11.40;3.60;;;;;;;16.71;63.05;102119.16;3574805;40;20257;-80
2021/07/19 01:07:43;;;;;;;10.50;3.80;;;;;;;16.77;63.17;102114.06;3585569;40;20218;-81
2021/07/19 01:10:17;;;;;;;9.83;3.97;;;;;;;16.71;63.27;102120.03;3575854;40;20250;-80
2021/07/19 01:12:48;;;;;;;16.67;5.17;;;;;;;16.59;64.03;102114.69;3585003;40;20642;-81
2021/07/19 01:15:13;;;;;;;12.77;4.50;;;;;;;16.59;64.05;102113.78;3584925;40;20623;-80
2021/07/19 01:17:39;;;;;;;11.37;3.80;;;;;;;16.61;63.75;102112.97;3576822;40;20226;-81
2021/07/19 01:20:05;;;;;;;9.03;3.77;;;;;;;16.60;63.80;102119.00;3574740;40;20241;-80
2021/07/19 01:22:55;;;;;;;8.73;3.90;;;;;;;16.61;64.21;102110.38;3575159;40;20370;-80
2021/07/19 01:25:47;;;;;;;8.90;3.63;;;;;;;16.75;63.56;102110.56;3574573;40;20243;-81
2021/07/19 01:28:25;;;;;;;8.77;3.70;;;;;;;16.74;63.37;102114.03;3566004;40;20242;-81
2021/07/19 01:30:52;;;;;;;10.87;3.63;;;;;;;16.72;63.66;102118.31;3576363;40;20608;-80
2021/07/19 01:33:19;;;;;;;8.30;3.63;;;;;;;16.78;63.33;102111.50;3585180;40;20477;-80
2021/07/19 01:35:46;;;;;;;9.73;3.90;;;;;;;16.75;62.75;102121.81;3584777;40;20596;-80
2021/07/19 01:38:12;;;;;;;7.80;3.50;;;;;;;16.71;63.22;102114.84;3569836;40;20246;-80
2021/07/19 01:40:38;;;;;;;9.10;4.00;;;;;;;16.87;62.62;102115.94;3574672;40;20230;-80
2021/07/19 01:43:06;;;;;;;8.67;3.80;;;;;;;16.81;62.82;102111.53;3574176;40;20242;-80
2021/07/19 01:45:32;;;;;;;11.30;4.10;;;;;;;16.86;62.75;102114.22;3580696;40;20242;-81
2021/07/19 01:47:57;;;;;;;11.40;4.07;;;;;;;16.85;62.91;102108.16;3575484;40;20312;-81
2021/07/19 01:50:24;;;;;;;12.10;3.87;;;;;;;16.93;62.49;102105.66;3584254;40;20228;-81
2021/07/19 01:52:51;;;;;;;5.77;2.80;;;;;;;16.86;62.70;102104.72;3583511;40;20287;-80
2021/07/19 01:55:17;;;;;;;9.77;3.90;;;;;;;16.94;62.36;102108.28;3583626;40;20225;-81
2021/07/19 01:57:42;;;;;;;11.63;3.73;;;;;;;16.93;62.49;102109.13;3584709;40;20222;-83
2021/07/19 02:00:09;;;;;;;8.80;3.30;;;;;;;16.85;62.43;102110.75;3585886;40;20230;-82
2021/07/19 02:02:37;;;;;;;6.80;3.42;;;;;;;16.89;62.43;102112.53;3577534;40;20266;-80
2021/07/19 02:05:12;;;;;;;10.03;4.37;;;;;;;16.87;62.71;102114.25;3577691;40;20252;-81
2021/07/19 02:07:39;;;;;;;12.77;4.23;;;;;;;16.93;62.33;102108.25;3577221;40;20233;-81
2021/07/19 02:10:07;;;;;;;8.47;3.80;;;;;;;16.93;62.17;102110.84;3576621;40;20650;-81
2021/07/19 02:12:36;;;;;;;8.27;3.33;;;;;;;17.13;60.51;102099.06;3584482;40;20612;-81
2021/07/19 02:15:04;;;;;;;9.90;4.07;;;;;;;16.99;60.48;102106.63;3585126;40;20233;-80
2021/07/19 02:17:31;;;;;;;9.70;3.90;;;;;;;16.97;60.48;102112.63;3585257;40;20226;-81
2021/07/19 02:19:57;;;;;;;10.03;3.63;;;;;;;17.00;60.00;102121.28;3584767;40;20229;-81
2021/07/19 02:22:23;;;;;;;10.23;3.93;;;;;;;17.02;59.87;102119.63;3575656;40;20552;-80
2021/07/19 02:24:50;;;;;;;9.37;3.80;;;;;;;17.08;60.14;102111.06;3585351;40;20242;-80
2021/07/19 02:27:17;;;;;;;8.67;3.70;;;;;;;17.06;59.72;102110.16;3583581;40;20243;-81
2021/07/19 02:29:44;;;;;;;10.63;4.13;;;;;;;17.02;59.96;102116.16;3576368;40;20284;-81
2021/07/19 02:32:10;;;;;;;9.30;3.70;;;;;;;16.94;60.51;102107.44;3575182;40;20237;-81
2021/07/19 02:34:36;;;;;;;11.03;4.30;;;;;;;17.02;60.24;102098.91;3575574;40;20230;-81
2021/07/19 02:37:02;;;;;;;7.13;3.77;;;;;;;17.00;59.95;102103.19;3576634;40;20616;-81
2021/07/19 02:39:29;;;;;;;6.33;2.50;;;;;;;16.92;60.29;102107.41;3595205;40;20311;-82
2021/07/19 02:41:56;;;;;;;10.35;3.78;;;;;;;16.93;60.71;102106.56;3583915;40;20230;-82
2021/07/19 02:44:21;;;;;;;10.67;3.83;;;;;;;16.87;60.65;102109.06;3573837;40;20234;-81
2021/07/19 02:46:50;;;;;;;9.53;3.60;;;;;;;16.92;61.29;102103.94;3582490;40;20230;-81
2021/07/19 02:49:16;;;;;;;6.17;3.27;;;;;;;16.90;60.32;102110.81;3582039;40;20266;-82
2021/07/19 02:51:42;;;;;;;8.13;3.30;;;;;;;16.89;60.58;102102.19;3574641;40;20242;-81
2021/07/19 02:54:07;;;;;;;8.13;3.60;;;;;;;16.93;59.62;102103.06;3574469;40;20234;-81
2021/07/19 02:56:36;;;;;;;9.00;3.43;;;;;;;16.93;59.24;102100.50;3577939;40;20231;-81
2021/07/19 02:59:01;;;;;;;6.33;3.60;;;;;;;16.98;59.12;102104.00;3585600;40;20218;-81
2021/07/19 03:01:27;;;;;;;8.03;3.60;;;;;;;16.93;60.20;102105.66;3585400;40;20504;-81
2021/07/19 03:03:55;;;;;;;9.63;3.57;;;;;;;16.95;60.09;102107.44;3585606;40;20619;-81
2021/07/19 03:06:25;;;;;;;6.80;3.63;;;;;;;16.94;59.99;102097.09;3578203;40;20246;-81
2021/07/19 03:08:52;;;;;;;7.53;3.53;;;;;;;17.00;60.10;102110.09;3586062;40;20230;-81
2021/07/19 03:11:26;;;;;;;7.27;3.37;;;;;;;17.03;59.65;102112.69;3576009;40;20241;-82
2021/07/19 03:13:55;;;;;;;9.83;4.23;;;;;;;16.90;60.36;102110.81;3575328;40;20250;-82
2021/07/19 03:16:22;;;;;;;10.27;4.03;;;;;;;16.90;59.78;102101.31;3575143;40;20243;-81
2021/07/19 03:18:48;;;;;;;7.37;2.90;;;;;;;16.88;60.26;102105.63;3574764;40;20226;-79
2021/07/19 03:21:16;;;;;;;8.13;3.50;;;;;;;16.94;60.19;102110.03;3575065;40;20333;-81
2021/07/19 03:23:44;;;;;;;6.23;3.27;;;;;;;16.91;60.25;102115.16;3575163;40;20250;-81
2021/07/19 03:26:10;;;;;;;10.60;4.00;;;;;;;16.91;60.00;102113.41;3575582;40;20248;-81
2021/07/19 03:28:38;;;;;;;7.57;3.63;;;;;;;16.95;59.83;102110.00;3585227;40;20218;-81
2021/07/19 03:31:04;;;;;;;8.47;4.07;;;;;;;16.86;60.37;102107.28;3585983;40;20218;-81
2021/07/19 03:33:30;;;;;;;11.13;3.80;;;;;;;17.06;58.74;102110.16;3585640;40;20238;-82
2021/07/19 03:35:55;;;;;;;5.60;3.50;;;;;;;16.92;59.20;102114.28;3575827;40;20229;-81
2021/07/19 03:38:21;;;;;;;8.23;3.10;;;;;;;16.95;59.00;102106.56;3578223;40;20863;-81
2021/07/19 03:40:47;;;;;;;6.80;3.67;;;;;;;16.93;59.23;102110.84;3575522;40;20236;-82
2021/07/19 03:43:14;;;;;;;8.87;4.20;;;;;;;16.95;58.91;102109.16;3571902;40;20243;-81
2021/07/19 03:45:40;;;;;;;8.60;4.10;;;;;;;16.95;58.65;102111.75;3575048;40;20612;-80
2021/07/19 03:48:08;;;;;;;5.43;3.40;;;;;;;16.96;58.63;102109.19;3573740;40;20265;-81
2021/07/19 03:50:36;;;;;;;8.40;4.33;;;;;;;17.02;58.53;102111.84;3574399;40;20232;-80
2021/07/19 03:53:02;;;;;;;7.10;3.85;;;;;;;17.18;58.22;102111.19;3575667;40;20628;-81
2021/07/19 03:55:27;;;;;;;8.70;4.47;;;;;;;17.05;57.93;102113.63;3580979;40;20245;-81
2021/07/19 03:57:53;;;;;;;7.10;4.70;;;;;;;17.09;57.74;102107.63;3594816;40;20237;-82
2021/07/19 04:00:20;;;;;;;9.53;4.60;;;;;;;17.13;58.14;102114.59;3587422;40;20224;-80
2021/07/19 04:02:52;;;;;;;7.77;4.53;;;;;;;17.16;57.83;102117.19;3594400;40;20412;-81
2021/07/19 04:05:21;;;;;;;8.07;4.63;;;;;;;17.08;58.08;102108.50;3589247;40;20226;-82
2021/07/19 04:07:47;;;;;;;11.13;5.57;;;;;;;17.25;57.50;102112.13;3572610;40;20254;-81
2021/07/19 04:10:19;;;;;;;7.73;5.07;;;;;;;17.21;57.56;102107.78;3586337;40;20237;-82
2021/07/19 04:12:47;;;;;;;8.30;5.50;;;;;;;17.21;58.03;102111.25;3577436;40;20510;-82
2021/07/19 04:15:13;;;;;;;10.63;5.77;;;;;;;17.23;57.66;102109.53;3585406;40;20642;-81
2021/07/19 04:17:39;;;;;;;7.80;5.30;;;;;;;17.21;58.37;102111.25;3584980;40;20242;-81
2021/07/19 04:20:07;;;;;;;6.30;4.90;;;;;;;17.13;58.64;102123.22;3584967;40;20322;-81
2021/07/19 04:22:34;;;;;;;9.87;5.03;;;;;;;17.08;58.89;102121.44;3585526;40;20307;-80
2021/07/19 04:24:59;;;;;;;8.90;5.17;;;;;;;17.11;58.28;102118.84;3576080;40;20235;-81
2021/07/19 04:27:25;;;;;;;9.20;5.30;;;;;;;17.15;58.67;102118.06;3585003;40;20221;-80
2021/07/19 04:29:53;;;;;;;8.47;4.73;;;;;;;17.12;59.01;102105.94;3585203;40;20292;-80
2021/07/19 04:32:21;;;;;;;8.60;5.13;;;;;;;17.13;58.85;102101.66;3584753;40;20253;-80
2021/07/19 04:34:47;;;;;;;9.07;5.70;;;;;;;17.14;58.85;102113.75;3583511;40;20669;-80
2021/07/19 04:37:13;;;;;;;10.90;5.57;;;;;;;17.27;58.21;102103.53;3584277;40;20230;-80
2021/07/19 04:39:40;;;;;;;7.50;5.00;;;;;;;17.38;58.03;102101.09;3584182;40;20229;-81
2021/07/19 04:42:06;;;;;;;8.43;5.30;;;;;;;17.25;58.19;102112.13;3575040;40;20264;-80
2021/07/19 04:44:32;;;;;;;9.30;5.47;;;;;;;17.27;58.38;102115.63;3584053;40;20233;-80
2021/07/19 04:46:58;;;;;;;10.63;5.80;;;;;;;17.38;57.38;102108.84;3584391;40;20226;-80
2021/07/19 04:49:29;;;;;;;8.47;6.10;;;;;;;17.32;58.04;102106.19;3574984;40;20702;-80
2021/07/19 04:51:55;;;;;;;7.27;4.63;;;;;;;17.31;58.42;102112.25;3564951;40;20231;-81
2021/07/19 04:54:25;;;;;;;8.03;4.97;;;;;;;17.34;58.77;102109.66;3573476;40;20234;-80
2021/07/19 04:56:53;;;;;;;8.30;5.40;;;;;;;17.35;59.06;102108.81;3584372;40;20234;-80
2021/07/19 04:59:19;;;;;;;8.17;5.07;;;;;;;17.42;58.44;102115.84;3583931;40;20253;-81
2021/07/19 05:01:49;;;;;;;6.10;4.80;;;;;;;17.42;58.94;102114.16;3579977;40;20234;-81
2021/07/19 05:04:17;;;;;;;8.17;4.80;;;;;;;17.52;57.43;102112.50;3574417;40;20706;-81
2021/07/19 05:06:46;;;;;;;8.50;5.53;;;;;;;17.66;57.07;102114.41;3584182;40;20224;-81
2021/07/19 05:09:13;;;;;;;8.20;5.20;;;;;;;17.56;56.15;102125.53;3583812;40;20233;-80
2021/07/19 05:11:42;;;;;;;7.17;4.93;;;;;;;17.61;55.22;102122.97;3575814;40;20274;-79
2021/07/19 05:14:09;;;;;;;8.20;5.73;;;;;;;17.51;55.87;102127.22;3563364;40;20253;-80
2021/07/19 05:16:40;;;;;;;9.03;5.57;;;;;;;17.49;56.84;102134.06;3577836;40;20237;-81
2021/07/19 05:19:09;;;;;;;6.77;4.47;;;;;;;17.55;56.48;102130.69;3572690;40;20240;-79
2021/07/19 05:21:36;;;;;;;6.70;5.07;;;;;;;17.62;56.16;102133.38;3581826;40;20608;-80
2021/07/19 05:24:03;;;;;;;6.00;4.37;;;;;;;17.66;55.93;102131.66;3569154;40;20327;-81
2021/07/19 05:26:29;;;;;;;6.57;4.90;;;;;;;17.67;55.90;102136.88;3563542;40;20223;-80
2021/07/19 05:28:56;;;;;;;8.70;5.27;;;;;;;17.82;55.22;102136.19;3565435;40;20548;-79
2021/07/19 05:31:23;;;;;;;8.23;5.83;;;;;;;17.75;55.84;102132.66;3558250;40;20306;-80
2021/07/19 05:33:57;;;;;;;7.50;5.70;;;;;;;17.74;55.06;102132.63;3581565;40;20244;-80
2021/07/19 05:36:22;;;;;;;7.97;5.00;;;;;;;17.73;55.43;102130.91;3581160;40;20241;-80
2021/07/19 05:38:53;;;;;;;7.20;4.43;;;;;;;17.74;55.80;102133.47;3581178;40;20221;-78
2021/07/19 05:41:18;;;;;;;5.53;4.93;;;;;;;17.75;54.90;102143.03;3569213;40;20293;-81
2021/07/19 05:43:43;;;;;;;7.93;5.70;;;;;;;17.71;56.12;102149.03;3561328;40;20277;-80
2021/07/19 05:46:16;;;;;;;6.20;4.87;;;;;;;17.83;55.48;102146.53;3575225;40;20222;-80
2021/07/19 05:48:45;;;;;;;8.00;4.50;;;;;;;17.84;56.03;102144.84;3580989;40;20476;-79
2021/07/19 05:51:13;;;;;;;6.63;4.70;;;;;;;17.83;56.10;102148.28;3579319;40;20262;-79
2021/07/19 05:53:38;;;;;;;9.83;5.53;;;;;;;17.88;55.78;102154.38;3580963;40;20585;-79
2021/07/19 05:56:09;;;;;;;7.53;5.57;;;;;;;17.94;56.21;102152.72;3582232;40;20229;-80
2021/07/19 05:58:47;;;;;;;9.00;5.93;;;;;;;17.93;55.85;102145.81;3569892;40;20222;-78
2021/07/19 06:01:15;;;;;;;8.10;5.27;;;;;;;17.89;55.61;102153.53;3580125;40;20233;-81
2021/07/19 06:03:42;;;;;;;8.50;6.00;;;;;;;18.02;55.79;102145.91;3580363;40;20234;-79
2021/07/19 06:06:10;;;;;;;9.47;5.83;;;;;;;17.99;56.15;102148.47;3580987;40;20245;-79
2021/07/19 06:08:38;;;;;;;9.00;5.20;;;;;;;17.95;56.84;102148.41;3581107;40;20753;-80
2021/07/19 06:11:03;;;;;;;8.00;5.40;;;;;;;18.00;57.09;102149.34;3580933;40;20230;-79
2021/07/19 06:13:29;;;;;;;8.23;6.07;;;;;;;18.04;56.92;102146.78;3581117;40;20244;-79
2021/07/19 06:15:56;;;;;;;7.90;5.80;;;;;;;18.00;56.76;102138.97;3571254;40;20237;-79
2021/07/19 06:18:22;;;;;;;7.43;4.90;;;;;;;17.99;56.40;102144.97;3580636;40;20225;-79
2021/07/19 06:20:47;;;;;;;8.07;5.63;;;;;;;17.99;56.60;102145.88;3580173;40;20285;-78
2021/07/19 06:23:15;;;;;;;8.90;5.40;;;;;;;18.05;56.80;102143.31;3580064;40;20242;-80
2021/07/19 06:25:43;;;;;;;8.30;5.67;;;;;;;18.12;56.44;102152.03;3580596;40;20694;-80
2021/07/19 06:28:10;;;;;;;9.07;5.27;;;;;;;18.24;56.74;102154.75;3580396;40;20234;-78
2021/07/19 06:30:36;;;;;;;8.47;5.10;;;;;;;18.32;55.91;102158.25;3555172;40;20246;-79
2021/07/19 06:33:09;;;;;;;7.37;5.50;;;;;;;18.35;56.49;102158.34;3571658;40;20352;-79
2021/07/19 06:35:41;;;;;;;8.23;5.50;;;;;;;18.37;56.26;102161.84;3562698;40;20303;-80
2021/07/19 06:38:06;;;;;;;6.10;5.17;;;;;;;18.44;56.21;102164.50;3563023;40;20414;-79
2021/07/19 06:40:34;;;;;;;8.83;5.37;;;;;;;18.53;56.17;102171.47;3576040;40;20226;-80
2021/07/19 06:42:59;;;;;;;9.83;4.90;;;;;;;18.58;55.64;102172.38;3571857;40;20250;-79
2021/07/19 06:45:24;;;;;;;9.07;5.73;;;;;;;18.68;54.44;102171.59;3571950;40;20226;-79
2021/07/19 06:47:49;;;;;;;9.00;5.87;;;;;;;18.84;53.08;102173.44;3571708;40;20238;-78
2021/07/19 06:50:25;;;;;;;7.93;5.33;;;;;;;18.78;53.40;102174.25;3562667;40;20246;-79
2021/07/19 06:52:50;;;;;;;9.30;6.00;;;;;;;18.81;53.21;102168.22;3562668;40;20628;-79
2021/07/19 06:55:16;;;;;;;9.03;6.37;;;;;;;18.82;53.24;102173.44;3572237;40;20590;-80
2021/07/19 06:57:41;;;;;;;8.20;5.43;;;;;;;18.86;52.85;102174.31;3562641;40;20250;-79
2021/07/19 07:00:09;;;;;;;10.13;6.33;;;;;;;18.80;53.30;102167.34;3570398;40;20222;-79
2021/07/19 07:02:34;;;;;;;8.77;5.73;;;;;;;18.85;53.03;102172.59;3571670;40;20250;-79
2021/07/19 07:04:59;;;;;;;8.70;5.57;;;;;;;18.91;53.61;102170.91;3572065;40;20309;-79
2021/07/19 07:07:25;;;;;;;8.17;6.50;;;;;;;19.00;52.14;102170.09;3572090;40;20253;-78
2021/07/19 07:09:50;;;;;;;8.10;5.40;;;;;;;18.98;53.14;102172.66;3562516;40;20246;-79
2021/07/19 07:12:23;;;;;;;6.60;5.80;;;;;;;18.96;53.22;102174.41;3571759;40;20250;-79
2021/07/19 07:14:49;;;;;;;6.07;4.50;;;;;;;19.06;53.37;102171.00;3571500;40;20656;-79
2021/07/19 07:17:14;;;;;;;7.17;6.13;;;;;;;19.20;52.73;102158.09;3571063;40;20292;-79
2021/07/19 07:19:40;;;;;;;9.27;6.37;;;;;;;19.29;52.01;102172.03;3561578;40;20235;-79
2021/07/19 07:22:05;;;;;;;9.70;5.63;;;;;;;19.42;51.31;102167.75;3561852;40;20247;-79
2021/07/19 07:24:30;;;;;;;9.57;5.77;;;;;;;19.45;51.20;102165.19;3568730;40;20233;-80
2021/07/19 07:26:58;;;;;;;8.80;5.30;;;;;;;19.57;49.49;102160.03;3571951;40;20308;-79
2021/07/19 07:29:24;;;;;;;6.07;4.70;;;;;;;19.69;49.14;102166.16;3567987;40;20597;-78
2021/07/19 07:31:49;;;;;;;7.40;5.13;;;;;;;19.64;50.40;102175.66;3581934;40;20238;-79
2021/07/19 07:34:17;;;;;;;6.27;5.03;;;;;;;19.69;50.96;102175.66;3582114;40;20250;-78
2021/07/19 07:36:42;;;;;;;8.47;4.70;;;;;;;19.79;50.25;102170.50;3581923;40;20245;-79
2021/07/19 07:39:11;;;;;;;6.40;4.30;;;;;;;19.82;50.76;102167.94;3579079;40;20316;-79
2021/07/19 07:41:36;;;;;;;5.83;4.00;;;;;;;19.85;49.78;102169.66;3581412;40;20233;-79
2021/07/19 07:44:05;;;;;;;6.47;4.33;;;;;;;19.95;49.98;102168.81;3581773;40;20308;-79
2021/07/19 07:46:33;;;;;;;6.70;4.60;;;;;;;20.08;49.77;102171.47;3572495;40;20237;-80
2021/07/19 07:48:58;;;;;;;6.13;4.67;;;;;;;20.10;50.17;102169.75;3581674;40;20229;-79
2021/07/19 07:51:23;;;;;;;5.97;4.13;;;;;;;20.22;48.13;102172.38;3581782;40;20225;-79
2021/07/19 07:53:49;;;;;;;5.87;3.80;;;;;;;20.30;48.13;102165.44;3581780;40;20250;-79
2021/07/19 07:56:16;;;;;;;6.40;4.13;;;;;;;20.32;48.02;102158.50;3582480;40;20229;-80
2021/07/19 07:58:42;;;;;;;6.50;4.60;;;;;;;20.53;46.64;102168.94;3580647;40;20222;-79
2021/07/19 08:01:07;;;;;;;5.77;4.57;;;;;;;20.55;46.44;102163.72;3580760;40;20620;-79
2021/07/19 08:03:33;;;;;;;5.27;4.27;;;;;;;20.56;47.89;102163.72;3581470;40;20255;-79
2021/07/19 08:06:00;;;;;;;8.80;4.77;;;;;;;20.66;46.07;102167.19;3581749;40;20241;-79
2021/07/19 08:08:26;;;;;;;7.20;4.90;;;;;;;20.74;45.63;102162.84;3572301;40;20225;-79
2021/07/19 08:10:54;;;;;;;5.70;4.20;;;;;;;20.62;46.24;102165.44;3578072;40;20632;-79
2021/07/19 08:13:19;;;;;;;6.67;4.33;;;;;;;20.51;46.71;102152.44;3579644;40;20286;-80
2021/07/19 08:15:47;;;;;;;4.77;4.17;;;;;;;20.69;46.37;102160.22;3580312;40;20233;-79
2021/07/19 08:18:20;;;;;;;6.83;3.80;;;;;;;20.52;46.50;102163.72;3580067;40;20232;-78
2021/07/19 08:20:47;;;;;;;6.27;3.90;;;;;;;20.45;46.64;102162.00;3580406;40;20250;-78
2021/07/19 08:23:17;;;;;;;6.13;4.20;;;;;;;20.57;46.67;102159.38;3579986;40;20737;-79
2021/07/19 08:25:42;;;;;;;7.20;3.73;;;;;;;20.53;45.07;102165.44;3571608;40;20250;-79
2021/07/19 08:28:08;;;;;;;5.60;3.90;;;;;;;20.40;46.93;102166.34;3581572;40;20276;-79
2021/07/19 08:30:33;;;;;;;5.90;4.33;;;;;;;20.40;46.68;102166.34;3555224;40;20618;-79
2021/07/19 08:32:59;;;;;;;5.17;3.57;;;;;;;20.43;47.27;102164.59;3571335;40;20634;-79
2021/07/19 08:35:28;;;;;;;6.53;4.50;;;;;;;20.55;46.14;102159.38;3570896;40;20210;-80
2021/07/19 08:38:08;;;;;;;7.90;4.10;;;;;;;20.65;45.63;102147.22;3569124;40;20274;-79
2021/07/19 08:40:34;;;;;;;6.00;3.67;;;;;;;20.71;45.19;102147.22;3562148;40;20211;-79
2021/07/19 08:43:01;;;;;;;7.40;4.10;;;;;;;20.80;45.47;102147.19;3571260;40;20561;-79
2021/07/19 08:45:29;;;;;;;6.30;4.20;;;;;;;21.12;44.65;102133.28;3571546;40;20238;-79
2021/07/19 08:47:54;;;;;;;4.50;3.80;;;;;;;21.18;43.89;102145.41;3561426;40;20233;-79
2021/07/19 08:50:22;;;;;;;7.57;3.73;;;;;;;20.99;45.09;102147.22;3571332;40;20218;-80
2021/07/19 08:52:53;;;;;;;6.67;3.87;;;;;;;21.12;44.45;102145.44;3571119;40;20528;-79
2021/07/19 08:55:19;;;;;;;6.50;3.40;;;;;;;21.01;44.26;102142.00;3561551;40;20270;-79
2021/07/19 08:57:46;;;;;;;4.97;3.50;;;;;;;21.09;44.73;102145.47;3561989;40;20223;-79
2021/07/19 09:00:13;;;;;;;5.93;4.10;;;;;;;21.10;43.92;102139.38;3570993;40;20230;-79
2021/07/19 09:02:46;;;;;;;5.13;2.97;;;;;;;21.07;43.32;102145.47;3570756;40;20246;-79
2021/07/19 09:05:15;;;;;;;4.13;3.57;;;;;;;20.89;44.32;102139.38;3571260;40;20235;-79
2021/07/19 09:07:40;;;;;;;4.27;3.20;;;;;;;20.66;45.01;102141.16;3571600;40;20223;-79
2021/07/19 09:10:09;;;;;;;4.40;2.87;;;;;;;20.52;45.64;102142.88;3571021;40;20231;-80
2021/07/19 09:12:44;;;;;;;4.23;3.07;;;;;;;20.76;45.68;102141.13;3571464;40;20250;-79
2021/07/19 09:15:14;;;;;;;6.57;3.27;;;;;;;20.84;44.78;102131.59;3571405;40;20562;-79
2021/07/19 09:17:40;;;;;;;4.73;3.20;;;;;;;20.88;44.71;102128.09;3569401;40;20231;-79
2021/07/19 09:20:09;;;;;;;5.83;3.53;;;;;;;21.11;45.48;102134.16;3561042;40;20542;-79
2021/07/19 09:22:36;;;;;;;4.83;3.10;;;;;;;21.22;44.73;102127.16;3566698;40;20493;-79
2021/07/19 09:25:14;;;;;;;4.60;3.20;;;;;;;21.42;44.87;102125.34;3571607;40;20253;-79
2021/07/19 09:28:01;;;;;;;5.50;3.20;;;;;;;21.90;44.83;102119.03;3562239;40;20257;-78
2021/07/19 09:30:28;;;;;;;5.27;2.97;;;;;;;22.03;42.51;102121.53;3557041;40;20305;-80
2021/07/19 09:33:00;;;;;;;3.80;2.87;;;;;;;22.20;41.79;102114.44;3581225;40;20246;-78
2021/07/19 09:35:27;;;;;;;4.23;2.40;;;;;;;22.38;40.19;102112.59;3580706;40;20275;-79
2021/07/19 09:37:52;;;;;;;4.17;2.63;;;;;;;22.24;41.22;102118.78;3569551;40;20230;-78
2021/07/19 09:40:28;;;;;;;5.73;2.50;;;;;;;22.19;40.85;102112.72;3575862;40;20297;-79
2021/07/19 09:42:54;;;;;;;4.40;2.87;;;;;;;22.18;41.30;102112.72;3581641;40;20261;-80
2021/07/19 09:45:31;;;;;;;5.73;2.80;;;;;;;22.07;41.79;102099.75;3581007;40;20453;-79
2021/07/19 09:48:07;;;;;;;3.67;2.47;;;;;;;22.09;41.01;102103.25;3580930;40;20237;-79
2021/07/19 09:50:52;;;;;;;3.47;2.50;;;;;;;21.96;41.79;102104.19;3581011;40;20249;-79
2021/07/19 09:53:38;;;;;;;4.43;2.57;;;;;;;21.85;42.33;102106.03;3581270;40;20242;-80
2021/07/19 09:56:13;;;;;;;4.23;2.73;;;;;;;21.85;41.88;102105.16;3570236;40;20237;-79
2021/07/19 09:58:43;;;;;;;4.17;2.37;;;;;;;21.90;41.43;102100.75;3570954;40;20232;-79
2021/07/19 10:01:09;;;;;;;4.30;2.67;;;;;;;21.87;41.64;102104.25;3585243;40;20225;-78
2021/07/19 10:03:34;;;;;;;4.20;2.40;;;;;;;21.75;42.42;102095.66;3590985;40;20229;-79
2021/07/19 10:06:04;;;;;;;4.33;2.27;;;;;;;21.80;42.67;102097.38;3591933;40;20237;-80
2021/07/19 10:08:29;;;;;;;3.90;2.70;;;;;;;21.98;40.57;102101.59;3585507;40;20238;-79
2021/07/19 10:10:55;;;;;;;3.33;2.40;;;;;;;22.10;40.92;102098.88;3580484;40;20271;-79
2021/07/19 10:13:31;;;;;;;6.20;2.30;;;;;;;22.06;40.57;102095.41;3571978;40;20273;-79
2021/07/19 10:15:56;;;;;;;4.80;2.30;;;;;;;22.02;40.92;102096.31;3581589;40;20527;-80
2021/07/19 10:18:23;;;;;;;2.90;2.20;;;;;;;21.81;41.92;102093.88;3581434;40;20213;-79
2021/07/19 10:20:50;;;;;;;2.20;1.97;;;;;;;21.88;40.90;102099.91;3581686;40;20253;-79
2021/07/19 10:23:15;;;;;;;6.27;2.40;;;;;;;21.78;41.52;102101.72;3581562;40;20246;-79
2021/07/19 10:25:41;;;;;;;4.97;2.50;;;;;;;21.76;41.02;102100.88;3572352;40;20262;-79
2021/07/19 10:28:07;;;;;;;2.73;2.13;;;;;;;21.55;42.63;102102.66;3582552;40;20585;-79
2021/07/19 10:30:33;;;;;;;2.67;2.20;;;;;;;21.73;41.73;102093.03;3581279;40;20218;-79
2021/07/19 10:32:59;;;;;;;5.30;1.77;;;;;;;21.83;41.43;102092.09;3581697;40;20233;-79
2021/07/19 10:35:28;;;;;;;4.20;2.40;;;;;;;21.49;43.54;102100.97;3581482;40;20225;-79
2021/07/19 10:38:02;;;;;;;3.30;2.30;;;;;;;21.43;43.79;102106.19;3572451;40;20627;-79
2021/07/19 10:40:30;;;;;;;5.67;2.70;;;;;;;21.75;41.35;102095.66;3576117;40;20221;-78
2021/07/19 10:43:08;;;;;;;3.00;2.53;;;;;;;21.74;41.58;102096.53;3561748;40;20255;-79
2021/07/19 10:45:39;;;;;;;4.27;2.50;;;;;;;21.74;42.42;102094.78;3561710;40;20246;-78
2021/07/19 10:48:04;;;;;;;6.73;2.60;;;;;;;21.57;43.78;102098.34;3571553;40;20277;-79
2021/07/19 10:50:37;;;;;;;3.97;2.77;;;;;;;21.73;42.63;102095.66;3571118;40;20233;-79
2021/07/19 10:53:03;;;;;;;3.37;2.53;;;;;;;21.79;44.09;102099.97;3571116;40;20230;-79
2021/07/19 10:55:33;;;;;;;4.13;2.60;;;;;;;22.01;41.61;102086.75;3561912;40;20308;-79
2021/07/19 10:58:05;;;;;;;3.10;2.50;;;;;;;22.18;41.92;102087.50;3571110;40;20218;-78
2021/07/19 11:00:39;;;;;;;5.60;3.00;;;;;;;22.33;40.97;102092.59;3562303;40;20496;-78
2021/07/19 11:03:09;;;;;;;3.60;2.67;;;;;;;22.17;41.43;102085.78;3571742;40;20253;-79
2021/07/19 11:05:37;;;;;;;3.33;2.53;;;;;;;21.88;42.20;102089.50;3571417;40;20286;-79
2021/07/19 11:08:03;;;;;;;4.43;2.67;;;;;;;21.74;42.88;102091.31;3571484;40;20252;-79
2021/07/19 11:10:29;;;;;;;5.83;2.93;;;;;;;21.61;43.75;102093.06;3572203;40;20223;-79
2021/07/19 11:12:57;;;;;;;7.00;3.20;;;;;;;21.59;43.71;102091.34;3570870;40;20247;-79
2021/07/19 11:15:36;;;;;;;5.83;2.93;;;;;;;21.45;44.76;102094.03;3571010;40;20222;-79
2021/07/19 11:18:15;;;;;;;3.60;2.37;;;;;;;21.42;45.18;102088.00;3571685;40;20225;-80
2021/07/19 11:20:46;;;;;;;3.17;2.37;;;;;;;21.52;44.47;102082.69;3571269;40;20466;-79
2021/07/19 11:23:13;;;;;;;4.43;2.53;;;;;;;21.59;44.63;102094.84;3571200;40;20255;-79
2021/07/19 11:25:46;;;;;;;5.30;2.47;;;;;;;21.73;43.79;102090.44;3562036;40;20231;-79
2021/07/19 11:28:19;;;;;;;5.63;2.73;;;;;;;21.64;44.91;102093.06;3572032;40;20235;-79